Flight Track Log - Related Links

Times and Time Zones

All times are in EST time to prevent confusion due to time zone crossing. See the N73DB flight status page for this flight to view local times or setup timezone preferences in your user account.

Time Position Orientation Groundspeed Altitude Reporting Facility
EST Latitude Longitude Course Direction KTS MPH feet Rate Location/Type
Sat 09:12:16 AM 40.8989 -74.0681 270° West 215 247 2,100  Level New York Center
Sat 09:13:16 AM 40.8928 -74.1364 263° West 234 269 3,800 2,000 Climbing New York Center
Sat 09:14:16 AM 40.8903 -74.2214 268° West 240 276 6,100 2,250 Climbing New York Center
Sat 09:15:16 AM 40.8872 -74.3311 268° West 247 284 8,300 2,104 Climbing New York Center
Sat 09:16:30 AM 40.8833 -74.4333 267° West 245 282 10,800 2,250 Climbing New York TRACON
Sat 09:17:00 AM 40.6119 -74.3860 270° West  Level Estimated
Sat 09:17:16 AM 40.8758 -74.4950 261° West 238 274 12,800  Level New York Center
Sat 09:18:16 AM 40.8736 -74.5636 268° West 230 265 14,000 600 Climbing New York Center
Sat 09:19:16 AM 40.8686 -74.6511 266° West 225 259 14,000  Level New York Center
Sat 09:20:16 AM 40.8581 -74.7219 259° West 220 253 14,000  Level New York Center
Sat 09:21:16 AM 40.7878 -74.7644 205° Southwest 235 270 14,000  Level New York Center
Sat 09:22:16 AM 40.7261 -74.7992 203° Southwest 261 300 14,000 400 Level New York Center
Sat 09:23:16 AM 40.6519 -74.8411 203° Southwest 266 306 14,800 950 Climbing New York Center
Sat 09:24:16 AM 40.5794 -74.8833 204° Southwest 282 325 15,900 1,050 Climbing New York Center
Sat 09:25:16 AM 40.5072 -74.9281 205° Southwest 282 325 16,900 600 Climbing New York Center
Sat 09:26:16 AM 40.4308 -74.9672 201° Southwest 287 330 17,100 950 Climbing New York Center
Sat 09:27:16 AM 40.3847 -75.0269 225° Southwest 271 312 18,800 1,400 Climbing New York Center
Sat 09:28:16 AM 40.3367 -75.0922 226° Southwest 257 296 19,900 1,250 Climbing New York Center
Sat 09:29:16 AM 40.2883 -75.1600 227° Southwest 257 296 21,300 1,250 Climbing New York Center
Sat 09:30:16 AM 40.2397 -75.2275 227° Southwest 257 296 22,400 1,150 Climbing New York Center
Sat 09:31:16 AM 40.1936 -75.2925 227° Southwest 257 296 23,600 1,150 Climbing New York Center
Sat 09:32:16 AM 40.1453 -75.3600 227° Southwest 257 296 24,700 1,100 Climbing New York Center
Sat 09:33:16 AM 40.0967 -75.4300 228° Southwest 257 296 25,800 1,150 Climbing New York Center
Sat 09:34:16 AM 40.0481 -75.4944 225° Southwest 257 296 27,000 1,250 Climbing New York Center
Sat 09:35:16 AM 40.0039 -75.5594 228° Southwest 252 290 28,300 1,300 Climbing New York Center
Sat 09:36:16 AM 39.9575 -75.6239 227° Southwest 252 290 29,600 1,400 Climbing New York Center
Sat 09:37:16 AM 39.9133 -75.6831 226° Southwest 247 284 31,100 1,350 Climbing New York Center
Sat 09:38:16 AM 39.8772 -75.7456 233° Southwest 240 276 32,300 1,150 Climbing New York Center
Sat 09:39:16 AM 39.8372 -75.8047 229° Southwest 228 262 33,400 1,100 Climbing New York Center
Sat 09:40:16 AM 39.8011 -75.8669 233° Southwest 223 257 34,500 950 Climbing New York Center
Sat 09:41:16 AM 39.7631 -75.9264 230° Southwest 223 257 35,300 650 Climbing New York Center
Sat 09:42:16 AM 39.7272 -75.9858 232° Southwest 218 251 35,800 350 Climbing New York Center
Sat 09:43:16 AM 39.6847 -76.0503 229° Southwest 224 258 36,000 100 Climbing New York Center
Sat 09:44:16 AM 39.6419 -76.1225 232° Southwest 234 269 36,000  Level New York Center
Sat 09:45:16 AM 39.5947 -76.1917 228° Southwest 252 290 36,000  Level New York Center
Sat 09:46:16 AM 39.5433 -76.2686 229° Southwest 264 304 36,000  Level New York Center
Sat 09:47:16 AM 39.4961 -76.3403 230° Southwest 270 311 36,000  Level New York Center
Sat 09:48:15 AM 39.4503 -76.4139 231° Southwest 272 313 36,000  Level Washington Center
Sat 09:49:16 AM 39.4061 -76.4886 233° Southwest 278 320 36,000  Level Washington Center
Sat 09:50:17 AM 39.3469 -76.5711 227° Southwest 278 320 36,000  Level Washington Center
Sat 09:51:15 AM 39.2986 -76.6456 230° Southwest 278 320 36,000  Level Washington Center
Sat 09:52:15 AM 39.2500 -76.7200 230° Southwest 278 320 36,000  Level Washington Center
Sat 09:53:16 AM 39.2033 -76.7917 230° Southwest 278 320 36,000  Level Washington Center
Sat 09:54:16 AM 39.1653 -76.8525 231° Southwest 278 320 36,000  Level Washington Center
Sat 09:55:17 AM 39.1081 -76.9425 231° Southwest 278 320 36,000  Level Washington Center
Sat 09:56:15 AM 39.0592 -77.0164 230° Southwest 278 320 36,000  Level Washington Center
Sat 09:57:15 AM 39.0022 -77.0847 223° Southwest 278 320 36,000  Level Washington Center
Sat 09:58:16 AM 38.9408 -77.1528 221° Southwest 283 326 36,000  Level Washington Center
Sat 09:59:17 AM 38.8794 -77.2208 221° Southwest 295 339 36,000  Level Washington Center
Sat 10:00:15 AM 38.8203 -77.2861 221° Southwest 295 339 36,000  Level Washington Center
Sat 10:01:15 AM 38.7589 -77.3514 220° Southwest 295 339 36,000  Level Washington Center
Sat 10:02:16 AM 38.6994 -77.4164 220° Southwest 290 334 36,000  Level Washington Center
Sat 10:03:14 AM 38.6381 -77.4814 220° Southwest 290 334 36,000  Level Washington Center
Sat 10:04:16 AM 38.5786 -77.5489 222° Southwest 290 334 36,000  Level Washington Center
Sat 10:05:16 AM 38.5169 -77.6136 219° Southwest 290 334 36,000  Level Washington Center
Sat 10:06:17 AM 38.4617 -77.6731 220° Southwest 290 334 36,000  Level Washington Center
Sat 10:07:15 AM 38.4022 -77.7403 222° Southwest 290 334 36,000  Level Washington Center
Sat 10:08:16 AM 38.3447 -77.8075 223° Southwest 290 334 36,000  Level Washington Center
Sat 10:09:16 AM 38.2872 -77.8747 223° Southwest 284 327 36,000  Level Washington Center
Sat 10:10:16 AM 38.2275 -77.9417 221° Southwest 289 333 36,000  Level Washington Center
Sat 10:11:17 AM 38.1678 -78.0083 221° Southwest 289 333 36,000  Level Washington Center
Sat 10:12:15 AM 38.1058 -78.0750 220° Southwest 289 333 36,000  Level Washington Center
Sat 10:13:16 AM 38.0461 -78.1442 222° Southwest 289 333 36,000  Level Washington Center
Sat 10:14:16 AM 37.9819 -78.2158 221° Southwest 284 327 36,000  Level Washington Center
Sat 10:15:17 AM 37.9242 -78.2794 221° Southwest 291 335 36,000  Level Washington Center
Sat 10:16:17 AM 37.8622 -78.3483 221° Southwest 296 341 36,000  Level Washington Center
Sat 10:17:14 AM 37.8000 -78.4169 221° Southwest 296 341 36,000  Level Washington Center
Sat 10:18:15 AM 37.7358 -78.4881 221° Southwest 296 341 36,000  Level Washington Center
Sat 10:19:16 AM 37.6714 -78.5592 221° Southwest 296 341 36,000  Level Washington Center
Sat 10:20:16 AM 37.6028 -78.6325 220° Southwest 302 348 36,000  Level Washington Center
Sat 10:21:17 AM 37.5406 -78.7008 221° Southwest 302 348 36,000  Level Washington Center
Sat 10:22:17 AM 37.4764 -78.7689 220° Southwest 302 348 36,000  Level Washington Center
Sat 10:23:15 AM 37.4117 -78.8419 222° Southwest 302 348 36,000  Level Washington Center
Sat 10:24:16 AM 37.3472 -78.9097 220° Southwest 302 348 36,000  Level Washington Center
Sat 10:25:17 AM 37.2892 -78.9697 219° Southwest 307 353 36,000  Level Washington Center
Sat 10:26:17 AM 37.2269 -79.0403 222° Southwest 307 353 36,000 -356 Level Washington Center
Sat 10:27:15 AM 37.1600 -79.1100 220° Southwest 312 359 35,300 -712 Descending Washington Center
Sat 10:28:15 AM 37.0911 -79.1825 220° Southwest 318 366 34,600 -446 Descending Washington Center
Sat 10:29:16 AM 37.0222 -79.2572 221° Southwest 323 372 34,400 -541 Descending Washington Center
Sat 10:30:17 AM 36.9531 -79.3319 221° Southwest 323 372 33,500 -1,059 Descending Washington Center
Sat 10:31:15 AM 36.8775 -79.4167 222° Southwest 323 372 32,300 -1,475 Descending Washington Center
Sat 10:32:15 AM 36.8042 -79.4908 219° Southwest 334 384 30,600 -1,289 Descending Washington Center
Sat 10:33:16 AM 36.7328 -79.5675 221° Southwest 340 391 29,700 -1,000 Descending Washington Center
Sat 10:34:15 AM 36.6589 -79.6492 222° Southwest 346 398 28,600 -1,041 Descending Washington Center
Sat 10:34:54 AM 36.6153 -79.6911 218° Southwest 359 413 28,000 -1,030 Descending Atlanta Center
Sat 10:35:54 AM 36.5389 -79.7703 220° Southwest 364 419 26,900 -1,050 Descending Atlanta Center
Sat 10:36:54 AM 36.4664 -79.8464 220° Southwest 358 412 25,900 -1,100 Descending Atlanta Center
Sat 10:37:54 AM 36.3878 -79.9303 221° Southwest 353 406 24,700 -950 Descending Atlanta Center
Sat 10:38:54 AM 36.3153 -80.0061 220° Southwest 348 400 24,000 -800 Descending Atlanta Center
Sat 10:39:54 AM 36.2403 -80.0692 214° Southwest 338 389 23,100 -1,200 Descending Atlanta Center
Sat 10:40:54 AM 36.1650 -80.1319 214° Southwest 332 382 21,600 -1,750 Descending Atlanta Center
Sat 10:41:54 AM 36.1042 -80.1839 215° Southwest 320 368 19,600 -1,850 Descending Atlanta Center
Sat 10:42:54 AM 36.0350 -80.2436 215° Southwest 314 361 17,900 -1,850 Descending Atlanta Center
Sat 10:43:54 AM 35.9658 -80.3033 215° Southwest 314 361 15,900 -1,723 Descending Atlanta Center
Sat 10:44:35 AM 35.9133 -80.3519 217° Southwest 307 353 15,000 -1,000 Descending Atlanta Center
Sat 10:44:54 AM 35.8908 -80.3708 214° Southwest 314 361 14,900 -1,143 Descending Atlanta Center
Sat 10:45:17 AM 35.8644 -80.3925 214° Southwest 299 344 14,200 -1,500 Descending Atlanta Center
Sat 10:45:54 AM 35.8256 -80.4225 212° Southwest 303 349 13,400 -1,418 Descending Atlanta Center
Sat 10:46:12 AM 35.8075 -80.4411 220° Southwest 275 316 12,900 -1,300 Descending Atlanta Center
Sat 10:46:54 AM 35.7625 -80.4764 212° Southwest 286 329 12,100 -1,215 Descending Atlanta Center
Sat 10:47:31 AM 35.7258 -80.5086 216° Southwest 264 304 11,300 -1,100 Descending Atlanta Center
Sat 10:47:54 AM 35.7014 -80.5278 212° Southwest 281 323 11,000 -327 Descending Atlanta Center
Sat 10:48:26 AM 35.6689 -80.5572 216° Southwest 270 311 11,000  Level Atlanta Center
Sat 10:48:54 AM 35.6383 -80.5814 213° Southwest 281 323 11,000  Level Atlanta Center
Sat 10:49:27 AM 35.6036 -80.6086 213° Southwest 280 322 11,000  Level Atlanta Center
Sat 10:49:54 AM 35.5731 -80.6328 213° Southwest 281 323 11,000  Level Atlanta Center
Sat 10:50:22 AM 35.5467 -80.6594 219° Southwest 274 315 11,000  Level Atlanta Center
Sat 10:50:54 AM 35.5139 -80.6836 211° Southwest 275 316 11,000  Level Atlanta Center
Sat 10:51:22 AM 35.4833 -80.7106 216° Southwest 270 311 11,000  Level Atlanta Center
Sat 10:51:54 AM 35.4506 -80.7372 214° Southwest 275 316 11,000  Level Atlanta Center
Sat 10:52:17 AM 35.4283 -80.7611 221° Southwest 271 312 11,000 -846 Level Atlanta Center
Sat 10:53:12 AM 35.3689 -80.8067 212° Southwest 270 311 9,900 -1,237 Descending Atlanta Center
Sat 10:53:54 AM 35.3219 -80.8367 208° Southwest 275 316 9,000 -806 Descending Atlanta Center
Sat 10:54:19 AM 35.2928 -80.8403 186° South 290 334 9,000 -628 Level Atlanta Center
Sat 10:55:20 AM 35.2133 -80.8331 176° South 280 322 8,100 -1,426 Descending Atlanta Center
Sat 10:56:21 AM 35.1422 -80.8283 177° South 238 274 6,100 -1,795 Descending Atlanta Center
Sat 10:57:27 AM 35.0756 -80.8358 185° South 224 258 4,300 -1,304 Descending Atlanta Center
Sat 10:58:16 AM 35.0789 -80.8842 275° West 188 216 3,600 -982 Descending Atlanta Center
Sat 10:59:17 AM 35.1153 -80.9208 321° Northwest 143 165 2,500 -885 Descending Atlanta Center
Sat 11:00:18 AM 35.1469 -80.9322 344° North 108 124 1,800 -595 Descending Atlanta Center
Sat 11:01:18 AM 35.1761 -80.9361 354° North 99 114 1,300 -500 Descending Atlanta Center
Sat 11:03:00 AM 35.2000 -80.9333 352° North  Level FlightAware Approximate
Sat 11:10:00 AM 35.2137 -80.9491 352° North  Level Estimated

Login

Don't have an account? Register now (free) for customized features, flight alerts, and more!